Russellville, AR

11:46 PM CST on February 09, 2016 (GMT -0600)
Amateur Radio Station WB5JJJ | | Change Station
CLOSE
Current Station
Personal Weather Station
Location: Russellville, AR
Elevation: 377 ft
Nearby Weather Stations

Elev 377 ft 35.28 °N, 93.15 °W | Updated 2 seconds ago

Clear
Clear
32.0 °F
Feels Like 32 °F
N
3.0
Wind Variable Wind from West
Gusts 6.0 mph

Today
High -- | Low -- °F
--% Chance of Precip.
Yesterday
High -- | Low -- °F
Precip. -- in
Pressure 30.22 in
Visibility 10.0 miles
Clouds Clear
Windchill 32 °F
Dew Point 14 °F
Humidity 42%
Rainfall 0.00 in
Snow Depth Not available.
7:05 AM 5:48 PM
Waxing Crescent, 4% visible
METAR KRUE 100453Z AUTO 32012G17KT 10SM CLR 02/M13 A3023 RMK AO2 SLP234 T00171133
Pressure 30.22 in
Visibility 10.0 miles
Clouds Clear
Windchill 32 °F
Dew Point 14 °F
Humidity 42%
Rainfall 0.00 in
Snow Depth Not available.
7:05 AM 5:48 PM
Waxing Crescent, 4% visible
METAR KRUE 100453Z AUTO 32012G17KT 10SM CLR 02/M13 A3023 RMK AO2 SLP234 T00171133

10-Day Weather Forecast

Almanac

Astronomy

Feb. 09, 2016 Rise Set
Actual Time
Civil Twilight
Nautical Twilight
Astronomical Twilight
Moon
Length of Visible Light
Length of Day
Tomorrow will be .
, % of the Moon is Illuminated

Today's Extremes

State Highs State Lows

Community

WunderPhotos

Upload Photos

1,891,823 photos uploaded!

WunderBlog® & News

Nearby

Air Quality

  Air Quality AQ Index Pollutant
Not available.

Snow Depth

Station Depth Elevation

Earthquake Activity

City Distance Mag. Time & Date
Minimum magnitude displayed is 2.5.

Coastal Water Temperatures

Place Temperature

Stations

Nearby Weather Stations

Station Location Temp. Windchill Dew Point Humidity Wind Precip. Elev Updated Type
                   

Watches & Warnings

There are currently no watches in effect.